< < Back
Terminal Aerodrome Forecast


Current Version              Previous Versions:   1  2  3  4  5  6  7  8  9  

Terminal Aerodrome Forecast

546
FTUS42 KFFC 202300
TAFAHN
TAF
KAHN 202332Z 2100/2124 28006KT P6SM VCSH SCT045 BKN100
      TEMPO 2101/2103 VRB12G22KT 4SM -TSRA BKN030CB
     FM210900 VRB03KT 5SM BR SCT060
     FM211400 28007KT P6SM SCT025
     FM211700 27008KT P6SM SCT045=

Latest METAR

224
SAUS70 KWBC 202354
MTRAHN
METAR KAHN 202351Z 00000KT 10SM CLR 26/21 A3005 RMK AO2 SLP170 T02610206
10350 20261 53008


USA.gov is the U.S. government's official web portal to all federal, state and local government web resources and services.